createdAt,value
2022-09-23T00:01:19.531Z,6.55
2022-09-23T00:03:47.235Z,6.38
2022-09-23T00:06:22.817Z,6.75
2022-09-23T00:08:50.415Z,6.22
2022-09-23T00:11:25.490Z,5.63
2022-09-23T00:13:55.439Z,6.95
2022-09-23T00:16:26.756Z,6.35
2022-09-23T00:18:53.415Z,5.53
2022-09-23T00:21:22.005Z,5.47
2022-09-23T00:23:48.835Z,5.65
2022-09-23T00:26:19.104Z,5.05
2022-09-23T00:28:46.641Z,4.80
2022-09-23T00:31:21.548Z,5.85
2022-09-23T00:33:53.158Z,5.72
2022-09-23T00:36:19.887Z,6.28
2022-09-23T00:38:46.889Z,6.07
2022-09-23T00:41:17.179Z,7.20
2022-09-23T00:43:48.552Z,6.28
2022-09-23T00:46:20.648Z,5.43
2022-09-23T00:48:48.986Z,6.17
2022-09-23T00:51:20.106Z,6.38
2022-09-23T00:53:50.299Z,5.28
2022-09-23T00:56:18.486Z,5.88
2022-09-23T00:58:47.595Z,5.28
2022-09-23T01:01:14.535Z,4.38
2022-09-23T01:03:45.516Z,4.40
2022-09-23T01:06:13.597Z,5.00
2022-09-23T01:08:44.106Z,5.65
2022-09-23T01:12:18.662Z,4.85
2022-09-23T01:17:32.827Z,5.07
2022-09-23T01:20:36.882Z,3.33
2022-09-23T01:23:28.478Z,5.03
2022-09-23T01:26:46.435Z,3.50
2022-09-23T01:29:33.234Z,4.07
2022-09-23T01:32:21.296Z,5.60
2022-09-23T01:34:57.488Z,5.03
2022-09-23T01:37:39.421Z,4.88
2022-09-23T01:40:18.170Z,5.35
2022-09-23T01:42:52.760Z,4.53
2022-09-23T01:45:42.116Z,5.45
2022-09-23T01:48:21.639Z,4.20
2022-09-23T01:51:12.754Z,4.10
2022-09-23T01:53:49.626Z,4.20
2022-09-23T01:56:32.658Z,5.38
2022-09-23T01:59:15.065Z,5.43
2022-09-23T02:01:56.321Z,4.07
2022-09-23T02:04:31.223Z,4.55
2022-09-23T02:07:15.386Z,4.13
2022-09-23T02:09:46.245Z,4.05
2022-09-23T02:12:18.387Z,4.22
2022-09-23T02:15:02.240Z,4.68
2022-09-23T02:17:40.078Z,5.97
2022-09-23T02:20:07.760Z,4.47
2022-09-23T02:22:48.906Z,4.45
2022-09-23T02:25:17.439Z,5.55
2022-09-23T02:28:11.681Z,6.97
2022-09-23T02:30:49.141Z,6.47
2022-09-23T02:33:30.502Z,4.13
2022-09-23T02:36:27.248Z,5.25
2022-09-23T02:38:59.166Z,5.50
2022-09-23T02:41:28.139Z,4.80
2022-09-23T02:44:12.753Z,5.93
2022-09-23T02:46:43.410Z,5.88
2022-09-23T02:49:19.136Z,8.30
2022-09-23T02:51:46.655Z,6.10
2022-09-23T02:54:16.919Z,5.03
2022-09-23T02:56:43.764Z,6.13
2022-09-23T02:59:12.433Z,6.00
2022-09-23T03:02:04.321Z,5.65
2022-09-23T03:04:50.553Z,5.40
2022-09-23T03:07:50.129Z,6.80
2022-09-23T03:10:24.825Z,5.50
2022-09-23T03:12:58.041Z,4.78
2022-09-23T03:18:18.195Z,6.25
2022-09-23T03:20:50.598Z,5.28
2022-09-23T03:23:23.897Z,5.65
2022-09-23T03:25:54.194Z,5.88
2022-09-23T03:28:22.901Z,6.20
2022-09-23T03:30:51.903Z,6.82
2022-09-23T03:33:25.715Z,5.68
2022-09-23T03:36:20.832Z,5.40
2022-09-23T03:38:52.809Z,4.28
2022-09-23T03:41:29.749Z,5.00
2022-09-23T03:43:58.497Z,6.00
2022-09-23T03:46:30.245Z,6.15
2022-09-23T03:49:02.775Z,7.50
2022-09-23T03:51:29.446Z,3.90
2022-09-23T03:53:56.339Z,4.35
2022-09-23T03:56:22.977Z,5.40
2022-09-23T03:58:49.740Z,7.32
2022-09-23T04:01:16.482Z,8.07
2022-09-23T04:03:43.418Z,4.97
2022-09-23T04:06:10.222Z,5.78
2022-09-23T04:08:37.022Z,5.65
2022-09-23T04:11:05.012Z,6.82
2022-09-23T04:13:34.250Z,7.15
2022-09-23T04:16:01.091Z,7.72
2022-09-23T04:18:27.994Z,6.25
2022-09-23T04:21:01.125Z,9.15
2022-09-23T04:25:55.444Z,6.65
2022-09-23T04:28:22.798Z,6.95
2022-09-23T04:30:49.800Z,7.45
2022-09-23T04:33:17.522Z,7.05
2022-09-23T04:35:44.271Z,7.55
2022-09-23T04:38:12.597Z,7.78
2022-09-23T04:40:39.866Z,5.78
2022-09-23T04:43:09.476Z,6.53
2022-09-23T04:45:38.738Z,6.68
2022-09-23T04:48:05.359Z,5.57
2022-09-23T04:50:34.261Z,5.30
2022-09-23T04:53:02.571Z,5.95
2022-09-23T04:55:30.154Z,8.85
2022-09-23T04:57:57.323Z,6.90
2022-09-23T05:00:24.353Z,6.38
2022-09-23T05:02:51.334Z,9.35
2022-09-23T05:05:23.520Z,7.80
2022-09-23T05:07:51.280Z,7.23
2022-09-23T05:10:18.311Z,10.35
2022-09-23T05:12:44.975Z,8.13
2022-09-23T05:15:13.148Z,9.85
2022-09-23T05:17:39.754Z,9.73
2022-09-23T05:20:06.989Z,15.25
2022-09-23T05:22:33.560Z,10.88
2022-09-23T05:25:01.639Z,9.57
2022-09-23T05:27:29.120Z,11.05
2022-09-23T05:29:55.714Z,11.45
2022-09-23T05:32:22.394Z,9.45
2022-09-23T05:34:49.505Z,10.00
2022-09-23T05:37:16.207Z,14.45
2022-09-23T05:39:42.790Z,10.48
2022-09-23T05:42:09.922Z,11.00
2022-09-23T05:44:36.544Z,11.65
2022-09-23T05:47:03.289Z,14.90
2022-09-23T05:49:55.271Z,14.50
2022-09-23T05:52:17.592Z,13.48
2022-09-23T05:54:44.194Z,9.30
2022-09-23T05:57:10.820Z,9.50
2022-09-23T05:59:38.040Z,10.02
2022-09-23T06:02:04.809Z,14.52
2022-09-23T06:04:31.591Z,11.63
2022-09-23T06:07:02.761Z,14.07
2022-09-23T06:09:35.637Z,9.13
2022-09-23T06:14:30.292Z,7.20
2022-09-23T06:16:56.894Z,7.32
2022-09-23T06:19:23.541Z,14.48
2022-09-23T06:21:50.198Z,10.38
2022-09-23T06:24:20.312Z,14.07
2022-09-23T06:26:49.102Z,10.82
2022-09-23T06:29:16.111Z,9.18
2022-09-23T06:31:43.447Z,8.20
2022-09-23T06:34:13.544Z,7.85
2022-09-23T06:36:45.739Z,11.32
2022-09-23T06:39:16.172Z,10.55
2022-09-23T06:41:43.839Z,8.20
2022-09-23T06:44:14.421Z,7.90
2022-09-23T06:46:41.166Z,7.68
2022-09-23T06:49:07.903Z,8.45
2022-09-23T06:51:34.588Z,10.15
2022-09-23T06:54:01.199Z,7.97
2022-09-23T06:56:27.887Z,8.48
2022-09-23T06:58:54.849Z,10.32
2022-09-23T07:01:22.305Z,7.63
2022-09-23T07:03:49.020Z,7.75
2022-09-23T07:06:16.202Z,14.20
2022-09-23T07:08:44.915Z,7.78
2022-09-23T07:11:13.111Z,6.10
2022-09-23T07:13:41.265Z,11.45
2022-09-23T07:16:09.190Z,10.50
2022-09-23T07:18:37.576Z,9.15
2022-09-23T07:21:15.972Z,11.85
2022-09-23T07:23:44.159Z,12.73
2022-09-23T07:26:10.870Z,11.15
2022-09-23T07:28:38.341Z,9.05
2022-09-23T07:31:14.778Z,8.70
2022-09-23T07:33:44.174Z,11.18
2022-09-23T07:36:14.396Z,13.40
2022-09-23T07:38:45.138Z,9.13
2022-09-23T07:41:14.928Z,17.60
2022-09-23T07:43:41.699Z,6.82
2022-09-23T07:46:11.585Z,12.02
2022-09-23T07:48:39.317Z,11.23
2022-09-23T07:51:10.709Z,12.90
2022-09-23T07:53:37.410Z,11.20
2022-09-23T07:56:06.335Z,9.00
2022-09-23T07:58:34.647Z,6.05
2022-09-23T08:01:10.274Z,8.90
2022-09-23T08:03:38.087Z,8.23
2022-09-23T08:06:11.141Z,12.05
2022-09-23T08:08:40.471Z,10.23
2022-09-23T08:11:10.251Z,9.55
2022-09-23T08:13:37.799Z,8.25
2022-09-23T08:16:04.687Z,6.07
2022-09-23T08:18:31.358Z,8.35
2022-09-23T08:20:58.080Z,5.82
2022-09-23T08:23:25.658Z,6.18
2022-09-23T08:26:00.863Z,7.78
2022-09-23T08:28:28.143Z,5.43
2022-09-23T08:30:55.816Z,7.43
2022-09-23T08:33:23.645Z,7.85
2022-09-23T08:35:51.494Z,6.68
2022-09-23T08:38:18.904Z,9.20
2022-09-23T08:40:49.456Z,10.30
2022-09-23T08:43:31.301Z,7.93
2022-09-23T08:46:02.636Z,5.75
2022-09-23T08:48:33.363Z,6.35
2022-09-23T08:51:33.842Z,7.70
2022-09-23T08:54:00.946Z,7.47
2022-09-23T08:56:30.738Z,6.40
2022-09-23T08:59:05.643Z,5.90
2022-09-23T09:01:47.143Z,5.68
2022-09-23T09:04:16.677Z,5.72
2022-09-23T09:10:09.636Z,4.78
2022-09-23T09:12:52.471Z,4.63
2022-09-23T09:15:25.323Z,4.40
2022-09-23T09:18:01.225Z,4.20
2022-09-23T09:21:16.029Z,4.95
2022-09-23T09:23:56.517Z,2.25
2022-09-23T09:26:33.538Z,3.28
2022-09-23T09:29:31.197Z,4.25
2022-09-23T09:31:59.515Z,5.22
2022-09-23T09:35:05.285Z,4.38
2022-09-23T09:37:41.410Z,4.65
2022-09-23T09:40:17.057Z,2.42
2022-09-23T09:42:48.484Z,3.85
2022-09-23T09:45:33.835Z,4.13
2022-09-23T09:48:10.966Z,6.25
2022-09-23T09:50:47.248Z,4.82
2022-09-23T09:53:21.074Z,3.38
2022-09-23T09:56:04.626Z,2.80
2022-09-23T09:58:51.306Z,3.72
2022-09-23T10:01:24.904Z,6.25
2022-09-23T10:03:59.167Z,5.18
2022-09-23T10:06:32.851Z,5.90
2022-09-23T10:09:08.554Z,2.17
2022-09-23T10:11:35.511Z,2.95
2022-09-23T10:14:13.997Z,3.95
2022-09-23T10:16:42.056Z,3.80
2022-09-23T10:19:25.331Z,1.55
2022-09-23T10:21:56.797Z,2.38
2022-09-23T10:24:26.481Z,2.70
2022-09-23T10:27:00.639Z,1.63
2022-09-23T10:29:33.759Z,3.75
2022-09-23T10:32:25.737Z,4.93
2022-09-23T10:35:17.013Z,3.95
2022-09-23T10:37:50.494Z,5.85
2022-09-23T10:40:37.634Z,5.05
2022-09-23T10:43:33.845Z,3.35
2022-09-23T10:46:24.492Z,1.90
2022-09-23T10:49:10.056Z,3.15
2022-09-23T10:51:58.522Z,3.75
2022-09-23T10:54:55.799Z,3.15
2022-09-23T10:57:43.406Z,1.90
2022-09-23T11:00:23.349Z,4.60
2022-09-23T11:02:52.880Z,1.58
2022-09-23T11:05:41.576Z,1.50
2022-09-23T11:08:27.799Z,5.25
2022-09-23T11:11:35.479Z,2.92
2022-09-23T11:14:08.121Z,2.90
2022-09-23T11:16:53.472Z,2.40
2022-09-23T11:19:57.873Z,4.70
2022-09-23T11:23:03.242Z,1.98
2022-09-23T11:25:54.608Z,1.80
2022-09-23T11:28:51.647Z,1.73
2022-09-23T11:31:37.423Z,1.70
2022-09-23T11:34:16.048Z,1.63
2022-09-23T11:37:14.082Z,3.33
2022-09-23T11:39:56.338Z,1.85
2022-09-23T11:42:28.899Z,1.95
2022-09-23T11:45:09.864Z,3.08
2022-09-23T11:47:45.479Z,2.20
2022-09-23T11:50:23.465Z,2.20
2022-09-23T11:52:58.747Z,1.10
2022-09-23T11:55:33.549Z,1.75
2022-09-23T11:58:22.609Z,0.93
2022-09-23T12:01:15.843Z,1.70
2022-09-23T12:04:12.462Z,2.42
2022-09-23T12:06:55.036Z,6.15
2022-09-23T12:09:58.141Z,2.75
2022-09-23T12:12:37.084Z,3.88
2022-09-23T12:15:36.272Z,2.40
2022-09-23T12:18:35.856Z,2.35
2022-09-23T12:21:38.845Z,2.65
2022-09-23T12:24:28.973Z,1.10
2022-09-23T12:27:02.175Z,1.25
2022-09-23T12:29:32.091Z,4.50
2022-09-23T12:31:59.497Z,1.65
2022-09-23T12:34:36.859Z,3.40
2022-09-23T12:37:05.598Z,2.22
2022-09-23T12:39:37.217Z,5.20
2022-09-23T12:42:11.163Z,2.08
2022-09-23T12:44:44.377Z,1.63
2022-09-23T12:47:21.122Z,3.28
2022-09-23T12:49:50.928Z,1.60
2022-09-23T12:52:17.479Z,1.60
2022-09-23T12:54:46.719Z,3.05
2022-09-23T12:57:34.191Z,2.05
2022-09-23T13:00:07.352Z,5.15
2022-09-23T13:02:38.353Z,1.88
2022-09-23T13:05:27.037Z,4.18
2022-09-23T13:08:05.305Z,1.73
2022-09-23T13:10:38.500Z,3.45
2022-09-23T13:13:06.759Z,1.08
2022-09-23T13:15:35.546Z,2.22
2022-09-23T13:18:21.059Z,1.70
2022-09-23T13:20:53.077Z,2.10
2022-09-23T13:23:27.358Z,0.80
2022-09-23T13:25:57.442Z,7.30
2022-09-23T13:28:29.546Z,2.47
2022-09-23T13:30:56.288Z,1.10
2022-09-23T13:33:49.931Z,1.20
2022-09-23T13:36:18.531Z,2.75
2022-09-23T13:38:48.703Z,2.25
2022-09-23T13:41:21.629Z,2.00
2022-09-23T13:43:55.949Z,2.50
2022-09-23T13:46:27.591Z,3.30
2022-09-23T13:48:55.410Z,1.48
2022-09-23T13:51:26.331Z,6.35
2022-09-23T13:54:01.036Z,2.23
2022-09-23T13:56:33.147Z,1.23
2022-09-23T13:59:24.864Z,1.98
2022-09-23T14:02:04.732Z,3.53
2022-09-23T14:04:31.422Z,3.92
2022-09-23T14:06:58.321Z,1.73
2022-09-23T14:09:28.193Z,1.55
2022-09-23T14:11:58.333Z,2.00
2022-09-23T14:14:27.326Z,4.50
2022-09-23T14:16:56.045Z,1.13
2022-09-23T14:19:25.682Z,1.58
2022-09-23T14:21:54.528Z,4.85
2022-09-23T14:24:31.970Z,1.88
2022-09-23T14:27:07.408Z,2.17
2022-09-23T14:29:39.472Z,2.00
2022-09-23T14:32:13.544Z,1.27
2022-09-23T14:34:41.628Z,1.85
2022-09-23T14:37:57.127Z,3.15
2022-09-23T14:40:35.294Z,2.63
2022-09-23T14:43:06.396Z,2.20
2022-09-23T14:45:36.191Z,3.67
2022-09-23T14:48:09.275Z,1.88
2022-09-23T14:50:36.954Z,2.28
2022-09-23T14:53:39.877Z,1.90
2022-09-23T14:58:56.248Z,1.83
2022-09-23T15:01:32.257Z,3.45
2022-09-23T15:04:12.564Z,1.52
2022-09-23T15:06:42.512Z,1.30
2022-09-23T15:09:20.097Z,1.95
2022-09-23T15:11:47.433Z,1.40
2022-09-23T15:14:36.777Z,2.33
2022-09-23T15:17:06.862Z,3.28
2022-09-23T15:19:35.312Z,1.48
2022-09-23T15:22:02.328Z,1.10
2022-09-23T15:24:44.848Z,2.75
2022-09-23T15:27:33.054Z,2.90
2022-09-23T15:30:17.102Z,2.47
2022-09-23T15:32:45.558Z,4.28
2022-09-23T15:35:18.852Z,1.50
2022-09-23T15:37:47.280Z,2.92
2022-09-23T15:40:19.541Z,1.92
2022-09-23T15:42:51.425Z,4.65
2022-09-23T15:45:21.906Z,1.13
2022-09-23T15:47:50.569Z,3.33
2022-09-23T15:50:17.468Z,2.30
2022-09-23T15:52:45.156Z,2.30
2022-09-23T15:55:15.843Z,3.83
2022-09-23T15:57:42.528Z,1.85
2022-09-23T16:00:13.353Z,1.55
2022-09-23T16:02:40.351Z,1.95
2022-09-23T16:05:07.765Z,2.28
2022-09-23T16:07:34.359Z,1.42
2022-09-23T16:10:00.954Z,1.90
2022-09-23T16:12:27.849Z,3.75
2022-09-23T16:14:54.497Z,1.45
2022-09-23T16:17:21.178Z,3.25
2022-09-23T16:19:47.805Z,2.92
2022-09-23T16:22:15.937Z,5.20
2022-09-23T16:24:42.728Z,2.55
2022-09-23T16:27:12.289Z,3.50
2022-09-23T16:29:38.905Z,5.10
2022-09-23T16:32:05.561Z,2.85
2022-09-23T16:34:34.715Z,4.05
2022-09-23T16:37:01.407Z,2.92
2022-09-23T16:39:28.057Z,5.25
2022-09-23T16:41:54.672Z,4.65
2022-09-23T16:44:24.878Z,7.78
2022-09-23T16:46:51.495Z,5.20
2022-09-23T16:49:18.107Z,4.45
2022-09-23T16:51:44.883Z,4.53
2022-09-23T16:54:15.004Z,6.80
2022-09-23T16:56:44.361Z,6.25
2022-09-23T16:59:15.668Z,7.30
2022-09-23T17:02:01.084Z,6.72
2022-09-23T17:04:28.075Z,6.18
2022-09-23T17:06:55.934Z,6.05
2022-09-23T17:09:25.607Z,5.93
2022-09-23T17:12:00.131Z,4.50
2022-09-23T17:14:29.826Z,4.78
2022-09-23T17:16:58.682Z,4.57
2022-09-23T17:19:25.461Z,5.18
2022-09-23T17:21:53.162Z,6.20
2022-09-23T17:24:19.751Z,4.78
2022-09-23T17:26:51.989Z,3.85
2022-09-23T17:29:19.550Z,5.68
2022-09-23T17:31:46.645Z,5.53
2022-09-23T17:34:13.390Z,6.38
2022-09-23T17:36:40.409Z,7.50
2022-09-23T17:39:07.261Z,7.68
2022-09-23T17:41:33.975Z,10.93
2022-09-23T17:44:00.824Z,11.30
2022-09-23T17:46:30.016Z,10.52
2022-09-23T17:48:57.122Z,11.98
2022-09-23T17:51:25.426Z,14.93
2022-09-23T17:53:52.569Z,15.63
2022-09-23T17:56:21.722Z,14.05
2022-09-23T17:58:49.744Z,13.82
2022-09-23T18:01:24.546Z,13.82
2022-09-23T18:03:55.778Z,11.02
2022-09-23T18:06:24.833Z,10.25
2022-09-23T18:08:52.282Z,13.50
2022-09-23T18:11:24.470Z,11.13
2022-09-23T18:13:59.401Z,10.57
2022-09-23T18:16:29.221Z,10.98
2022-09-23T18:18:58.135Z,9.30
2022-09-23T18:21:28.009Z,9.27
2022-09-23T18:23:59.796Z,8.50
2022-09-23T18:26:34.052Z,9.57
2022-09-23T18:29:01.398Z,5.88
2022-09-23T18:31:35.184Z,8.52
2022-09-23T18:34:04.483Z,7.80
2022-09-23T18:36:31.117Z,13.02
2022-09-23T18:38:57.947Z,5.82
2022-09-23T18:41:24.636Z,5.25
2022-09-23T18:43:51.309Z,5.47
2022-09-23T18:46:20.462Z,7.32
2022-09-23T18:49:05.870Z,4.53
2022-09-23T18:51:34.827Z,5.22
2022-09-23T18:54:03.975Z,5.82
2022-09-23T18:56:37.109Z,7.80
2022-09-23T18:59:06.257Z,5.53
2022-09-23T19:01:34.222Z,5.10
2022-09-23T19:04:02.237Z,6.32
2022-09-23T19:06:31.304Z,6.82
2022-09-23T19:08:58.493Z,6.40
2022-09-23T19:11:25.317Z,8.18
2022-09-23T19:13:57.426Z,7.47
2022-09-23T19:16:25.208Z,7.97
2022-09-23T19:18:52.830Z,10.55
2022-09-23T19:21:21.860Z,9.10
2022-09-23T19:23:54.338Z,6.47
2022-09-23T19:26:31.712Z,5.60
2022-09-23T19:29:00.331Z,7.20
2022-09-23T19:31:30.298Z,9.38
2022-09-23T19:34:00.717Z,8.50
2022-09-23T19:36:31.765Z,8.80
2022-09-23T19:39:02.664Z,8.65
2022-09-23T19:41:35.443Z,7.75
2022-09-23T19:46:33.698Z,13.20
2022-09-23T19:49:00.979Z,9.20
2022-09-23T19:51:28.321Z,8.93
2022-09-23T19:53:54.943Z,11.88
2022-09-23T19:56:21.612Z,8.48
2022-09-23T19:58:54.318Z,10.13
2022-09-23T20:01:29.323Z,10.73
2022-09-23T20:03:56.495Z,9.30
2022-09-23T20:06:23.226Z,12.73
2022-09-23T20:08:50.271Z,10.65
2022-09-23T20:11:21.770Z,11.23
2022-09-23T20:13:58.492Z,11.77
2022-09-23T20:16:25.909Z,9.73
2022-09-23T20:18:53.058Z,10.65
2022-09-23T20:21:19.726Z,8.65
2022-09-23T20:23:46.329Z,9.75
2022-09-23T20:26:31.757Z,12.00
2022-09-23T20:29:01.375Z,10.63
2022-09-23T20:31:29.443Z,8.05
2022-09-23T20:34:00.346Z,12.90
2022-09-23T20:36:29.298Z,14.60
2022-09-23T20:38:59.414Z,13.10
2022-09-23T20:41:31.245Z,11.15
2022-09-23T20:44:02.337Z,10.95
2022-09-23T20:46:29.522Z,8.05
2022-09-23T20:48:56.777Z,7.63
2022-09-23T20:51:24.892Z,7.60
2022-09-23T20:53:52.959Z,9.90
2022-09-23T20:56:21.302Z,8.98
2022-09-23T20:58:50.371Z,9.05
2022-09-23T21:01:17.152Z,7.18
2022-09-23T21:03:46.476Z,9.90
2022-09-23T21:06:17.321Z,9.75
2022-09-23T21:08:46.603Z,10.98
2022-09-23T21:11:16.141Z,8.15
2022-09-23T21:13:47.216Z,8.05
2022-09-23T21:16:17.860Z,8.75
2022-09-23T21:18:45.550Z,9.25
2022-09-23T21:21:14.314Z,10.27
2022-09-23T21:23:42.409Z,10.43
2022-09-23T21:26:19.313Z,8.68
2022-09-23T21:28:58.736Z,8.60
2022-09-23T21:31:26.692Z,8.10
2022-09-23T21:33:59.116Z,9.98
2022-09-23T21:36:28.749Z,9.55
2022-09-23T21:38:56.066Z,8.60
2022-09-23T21:41:23.680Z,10.15
2022-09-23T21:43:51.031Z,9.93
2022-09-23T21:46:22.674Z,9.30
2022-09-23T21:48:53.379Z,11.02
2022-09-23T21:51:25.925Z,8.85
2022-09-23T21:53:57.691Z,11.52
2022-09-23T21:56:29.668Z,10.15
2022-09-23T21:58:58.376Z,9.70
2022-09-23T22:01:27.123Z,10.57
2022-09-23T22:03:57.814Z,10.10
2022-09-23T22:06:27.159Z,10.88
2022-09-23T22:08:59.632Z,7.50
2022-09-23T22:11:47.771Z,9.57
2022-09-23T22:14:16.368Z,8.05
2022-09-23T22:16:43.442Z,7.85
2022-09-23T22:19:12.573Z,8.05
2022-09-23T22:21:41.106Z,6.68
2022-09-23T22:24:09.744Z,8.55
2022-09-23T22:26:41.908Z,8.13
2022-09-23T22:29:31.034Z,7.93
2022-09-23T22:32:16.662Z,9.52
2022-09-23T22:34:51.459Z,8.75
2022-09-23T22:37:27.213Z,7.60
2022-09-23T22:39:54.757Z,5.72
2022-09-23T22:42:22.459Z,9.63
2022-09-23T22:44:49.885Z,9.32
2022-09-23T22:47:17.993Z,7.07
2022-09-23T22:49:46.035Z,7.68
2022-09-23T22:52:14.904Z,8.18
2022-09-23T22:54:42.072Z,9.95
2022-09-23T22:57:09.302Z,6.82
2022-09-23T22:59:37.353Z,9.32
2022-09-23T23:02:04.264Z,7.63
2022-09-23T23:04:31.075Z,7.55
2022-09-23T23:06:58.695Z,7.57
2022-09-23T23:09:25.912Z,8.93
2022-09-23T23:11:52.608Z,8.77
2022-09-23T23:14:19.345Z,7.22
2022-09-23T23:16:46.587Z,8.75
2022-09-23T23:19:17.009Z,8.32
2022-09-23T23:21:45.347Z,8.40
2022-09-23T23:24:19.428Z,7.70
2022-09-23T23:26:46.931Z,8.38
2022-09-23T23:29:16.073Z,8.30
2022-09-23T23:31:43.637Z,7.20
2022-09-23T23:34:19.276Z,7.28
2022-09-23T23:36:47.136Z,6.90
2022-09-23T23:39:14.367Z,6.25
2022-09-23T23:41:41.625Z,6.43
2022-09-23T23:44:08.962Z,9.05
2022-09-23T23:46:37.362Z,9.38
2022-09-23T23:49:04.965Z,8.52
2022-09-23T23:51:32.116Z,9.40
2022-09-23T23:53:59.591Z,7.40
2022-09-23T23:56:27.365Z,7.40
2022-09-23T23:58:58.471Z,8.77
